createdAt,value
2023-02-06T00:00:55.068Z,2.5
2023-02-06T00:05:07.464Z,2.4
2023-02-06T00:07:16.623Z,2.2
2023-02-06T00:09:22.821Z,2.2
2023-02-06T00:11:29.009Z,2.2
2023-02-06T00:13:35.239Z,2.4
2023-02-06T00:15:41.423Z,2.4
2023-02-06T00:17:47.639Z,2.3
2023-02-06T00:19:53.850Z,2.3
2023-02-06T00:22:02.940Z,2.4
2023-02-06T00:24:10.736Z,2.3
2023-02-06T00:26:16.864Z,2.4
2023-02-06T00:27:21.425Z,2.3
2023-02-06T00:29:27.637Z,2.3
2023-02-06T00:31:33.915Z,2.3
2023-02-06T00:33:40.062Z,2.4
2023-02-06T00:35:49.179Z,2.4
2023-02-06T00:37:55.379Z,2.4
2023-02-06T00:40:01.586Z,2.4
2023-02-06T00:42:07.799Z,2.3
2023-02-06T00:44:14.016Z,2.3
2023-02-06T00:46:20.276Z,2.3
2023-02-06T00:50:35.519Z,2.1
2023-02-06T00:52:41.745Z,2
2023-02-06T00:54:47.955Z,2.2
2023-02-06T00:56:54.164Z,2.1
2023-02-06T00:59:00.355Z,2.1
2023-02-06T01:01:06.581Z,2.1
2023-02-06T01:05:21.876Z,2.1
2023-02-06T01:07:28.104Z,2.2
2023-02-06T01:09:34.297Z,2.1
2023-02-06T01:11:40.499Z,2.1
2023-02-06T01:13:46.705Z,2
2023-02-06T01:15:52.973Z,2
2023-02-06T01:17:59.125Z,2.1
2023-02-06T01:20:08.257Z,2.1
2023-02-06T01:24:20.686Z,2.3
2023-02-06T01:26:46.666Z,2.3
2023-02-06T01:28:52.850Z,2.4
2023-02-06T01:30:59.169Z,2.4
2023-02-06T01:33:08.306Z,2.4
2023-02-06T01:39:26.806Z,2.4
2023-02-06T01:41:33.017Z,2.4
2023-02-06T01:43:39.248Z,2.5
2023-02-06T01:45:45.426Z,2.6
2023-02-06T01:47:54.520Z,2.6
2023-02-06T01:50:00.818Z,2.6
2023-02-06T01:52:07.009Z,2.6
2023-02-06T01:54:13.175Z,2.5
2023-02-06T01:56:19.484Z,2.6
2023-02-06T01:58:25.649Z,2.6
2023-02-06T02:00:31.851Z,2.6
2023-02-06T02:02:40.970Z,2.7
2023-02-06T02:04:47.170Z,2.6
2023-02-06T02:06:53.372Z,2.6
2023-02-06T02:08:59.609Z,2.6
2023-02-06T02:11:06.010Z,2.6
2023-02-06T02:13:12.073Z,2.8
2023-02-06T02:15:18.260Z,2.7
2023-02-06T02:17:27.373Z,2.8
2023-02-06T02:19:33.603Z,2.9
2023-02-06T02:21:39.826Z,2.7
2023-02-06T02:22:44.390Z,2.9
2023-02-06T02:24:50.615Z,2.7
2023-02-06T02:26:56.834Z,2.8
2023-02-06T02:29:03.050Z,2.8
2023-02-06T02:35:24.614Z,2.9
2023-02-06T02:37:30.841Z,3
2023-02-06T02:39:37.066Z,2.9
2023-02-06T02:43:49.505Z,3.1
2023-02-06T02:50:11.101Z,3
2023-02-06T02:52:17.314Z,3.1
2023-02-06T02:54:23.554Z,3
2023-02-06T02:56:29.787Z,3
2023-02-06T02:58:36.036Z,3.1
2023-02-06T03:00:45.160Z,3
2023-02-06T03:02:51.385Z,3
2023-02-06T03:04:57.635Z,3.1
2023-02-06T03:07:03.872Z,3.1
2023-02-06T03:09:10.090Z,3.1
2023-02-06T03:11:16.326Z,3
2023-02-06T03:13:22.538Z,2.9
2023-02-06T03:17:37.901Z,2.8
2023-02-06T03:20:48.756Z,3
2023-02-06T03:22:54.974Z,3.1
2023-02-06T03:27:07.436Z,2.7
2023-02-06T03:29:16.591Z,2.7
2023-02-06T03:31:22.851Z,2.6
2023-02-06T03:35:35.661Z,2.5
2023-02-06T03:39:47.726Z,2.5
2023-02-06T03:44:03.104Z,2.4
2023-02-06T03:46:09.323Z,2.4
2023-02-06T03:48:15.553Z,2.5
2023-02-06T03:50:21.742Z,2.4
2023-02-06T03:52:27.965Z,2.4
2023-02-06T03:54:34.189Z,2.4
2023-02-06T03:58:49.601Z,2.5
2023-02-06T04:05:08.152Z,2.4
2023-02-06T04:07:14.377Z,2.5
2023-02-06T04:09:20.570Z,2.5
2023-02-06T04:13:35.897Z,2.5
2023-02-06T04:15:42.135Z,2.5
2023-02-06T04:17:59.567Z,2.6
2023-02-06T04:20:59.160Z,2.5
2023-02-06T04:23:05.328Z,2.5
2023-02-06T04:25:11.555Z,2.4
2023-02-06T04:27:20.708Z,2.4
2023-02-06T04:31:33.097Z,2.5
2023-02-06T04:33:39.273Z,2.4
2023-02-06T04:35:45.464Z,2.4
2023-02-06T04:37:51.726Z,2.5
2023-02-06T04:39:57.909Z,2.4
2023-02-06T04:42:07.058Z,2.4
2023-02-06T04:48:25.721Z,2.3
2023-02-06T04:56:53.502Z,2.5
2023-02-06T05:01:05.947Z,2.4
2023-02-06T05:05:18.411Z,2.4
2023-02-06T05:09:30.844Z,2.3
2023-02-06T05:11:39.969Z,2.4
2023-02-06T05:13:46.172Z,2.4
2023-02-06T05:22:30.884Z,2.4
2023-02-06T05:24:39.993Z,2.3
2023-02-06T05:26:46.199Z,2.2
2023-02-06T05:28:52.431Z,2.4
2023-02-06T05:30:58.666Z,2.2
2023-02-06T05:33:04.878Z,2.3
2023-02-06T05:35:11.060Z,2.2
2023-02-06T05:41:32.600Z,2.4
2023-02-06T05:43:38.790Z,2.4
2023-02-06T05:45:45.005Z,2.3
2023-02-06T05:47:51.224Z,2.4
2023-02-06T05:49:57.405Z,2.4
2023-02-06T05:52:03.629Z,2.2
2023-02-06T05:56:18.948Z,2.3
2023-02-06T05:58:25.148Z,2.3
2023-02-06T06:00:31.350Z,2.2
2023-02-06T06:02:37.571Z,2.3
2023-02-06T06:08:59.112Z,2.6
2023-02-06T06:18:28.532Z,2.4
2023-02-06T06:29:04.049Z,2.4
2023-02-06T06:31:10.315Z,2.6
2023-02-06T06:33:16.413Z,2.5
2023-02-06T06:35:22.663Z,2.4
2023-02-06T06:37:31.752Z,2.4
2023-02-06T06:39:37.955Z,2.5
2023-02-06T06:43:51.507Z,2.4
2023-02-06T06:45:56.657Z,2.6
2023-02-06T06:48:02.858Z,2.6
2023-02-06T06:50:09.025Z,2.6
2023-02-06T06:52:25.026Z,2.6
2023-02-06T06:54:24.368Z,2.5
2023-02-06T06:56:30.576Z,2.5
2023-02-06T07:00:43.069Z,2.6
2023-02-06T07:02:49.314Z,2.7
2023-02-06T07:04:55.423Z,2.7
2023-02-06T07:07:04.631Z,2.7
2023-02-06T07:09:10.783Z,2.8
2023-02-06T07:11:17.015Z,2.8
2023-02-06T07:12:21.563Z,2.8
2023-02-06T07:14:27.793Z,2.8
2023-02-06T07:16:34.079Z,2.9
2023-02-06T07:18:40.241Z,2.9
2023-02-06T07:20:49.360Z,2.8
2023-02-06T07:22:55.627Z,2.8
2023-02-06T07:27:08.031Z,2.8
2023-02-06T07:37:42.049Z,3
2023-02-06T07:41:54.522Z,3
2023-02-06T07:44:00.736Z,3
2023-02-06T07:46:07.194Z,3
2023-02-06T07:50:22.350Z,3.2
2023-02-06T07:52:28.556Z,3.2
2023-02-06T07:54:34.804Z,3.2
2023-02-06T07:56:41.036Z,3.3
2023-02-06T07:58:47.261Z,3.2
2023-02-06T08:05:08.881Z,3.3
2023-02-06T08:09:21.346Z,3.3
2023-02-06T08:10:25.976Z,3.3
2023-02-06T08:12:32.212Z,3.3
2023-02-06T08:14:38.487Z,3.4
2023-02-06T08:18:53.578Z,3.5
2023-02-06T08:20:59.785Z,3.5
2023-02-06T08:33:40.179Z,3.9
2023-02-06T08:35:46.324Z,4
2023-02-06T08:37:52.564Z,4.1
2023-02-06T08:39:58.859Z,4.2
2023-02-06T08:42:05.103Z,4.2
2023-02-06T08:44:11.233Z,4.4
2023-02-06T08:46:17.594Z,4.4
2023-02-06T08:48:26.558Z,4.6
2023-02-06T08:52:38.869Z,4.7
2023-02-06T08:58:57.651Z,4.8
2023-02-06T09:01:03.911Z,4.8
2023-02-06T09:05:19.138Z,5
2023-02-06T09:09:51.113Z,5.2
2023-02-06T09:11:57.355Z,5.3
2023-02-06T09:14:03.539Z,5.2
2023-02-06T09:16:12.662Z,5.3
2023-02-06T09:18:18.718Z,5.4
2023-02-06T09:20:24.882Z,5.5
2023-02-06T09:24:37.251Z,5.8
2023-02-06T09:26:58.403Z,5.8
2023-02-06T09:28:49.629Z,5.8
2023-02-06T09:30:58.747Z,5.9
2023-02-06T09:35:11.012Z,6
2023-02-06T09:37:17.196Z,6.1
2023-02-06T09:41:29.572Z,6.1
2023-02-06T09:43:35.772Z,6
2023-02-06T09:45:44.768Z,6
2023-02-06T09:47:50.940Z,6
2023-02-06T09:49:57.168Z,6.3
2023-02-06T09:52:03.360Z,6.4
2023-02-06T09:54:09.536Z,6.5
2023-02-06T10:00:30.970Z,6.6
2023-02-06T10:02:37.162Z,6.6
2023-02-06T10:05:47.860Z,6.7
2023-02-06T10:07:54.102Z,6.8
2023-02-06T10:10:00.306Z,7.1
2023-02-06T10:12:06.507Z,7.4
2023-02-06T10:16:21.767Z,7.3
2023-02-06T10:18:27.960Z,7.3
2023-02-06T10:20:34.176Z,7.3
2023-02-06T10:22:40.427Z,7.2
2023-02-06T10:24:46.607Z,7.1
2023-02-06T10:26:52.838Z,7
2023-02-06T10:29:01.868Z,7.2
2023-02-06T10:31:08.209Z,7.3
2023-02-06T10:33:24.806Z,7.4
2023-02-06T10:35:20.582Z,7.5
2023-02-06T10:37:26.818Z,7.6
2023-02-06T10:39:33.035Z,7.5
2023-02-06T10:41:39.351Z,7.4
2023-02-06T10:43:48.333Z,7.5
2023-02-06T10:45:54.543Z,7.7
2023-02-06T10:48:00.782Z,7.9
2023-02-06T10:50:07.029Z,7.8
2023-02-06T10:52:13.272Z,7.6
2023-02-06T10:54:19.522Z,7.4
2023-02-06T10:56:25.761Z,7.5
2023-02-06T11:00:41.080Z,7.5
2023-02-06T11:02:52.817Z,7.5
2023-02-06T11:10:10.563Z,7.7
2023-02-06T11:12:19.609Z,7.7
2023-02-06T11:14:25.848Z,7.8
2023-02-06T11:16:32.143Z,8
2023-02-06T11:18:38.365Z,8.2
2023-02-06T11:20:44.597Z,8.6
2023-02-06T11:22:52.953Z,8.6
2023-02-06T11:24:57.098Z,8.5
2023-02-06T11:27:06.132Z,8.4
2023-02-06T11:29:12.419Z,8.5
2023-02-06T11:31:18.722Z,9.7
2023-02-06T11:33:24.904Z,9.5
2023-02-06T11:35:31.156Z,8.9
2023-02-06T11:37:37.404Z,9.5
2023-02-06T11:39:43.679Z,9.4
2023-02-06T11:41:52.693Z,9.4
2023-02-06T11:43:58.964Z,9.2
2023-02-06T11:46:05.266Z,8.7
2023-02-06T11:48:11.506Z,8.4
2023-02-06T11:50:17.745Z,8.2
2023-02-06T11:56:39.325Z,8.8
2023-02-06T12:00:51.838Z,9.5
2023-02-06T12:01:56.383Z,9.7
2023-02-06T12:06:08.894Z,9.9
2023-02-06T12:12:30.515Z,9
2023-02-06T12:14:36.744Z,9.1
2023-02-06T12:16:43.180Z,10.3
2023-02-06T12:18:49.273Z,10.6
2023-02-06T12:20:55.564Z,13.2
2023-02-06T12:23:01.814Z,13.6
2023-02-06T12:25:10.884Z,11.8
2023-02-06T12:27:17.151Z,11.9
2023-02-06T12:29:23.418Z,10.3
2023-02-06T12:31:29.776Z,9.6
2023-02-06T12:33:37.497Z,11.4
2023-02-06T12:35:43.752Z,11.6
2023-02-06T12:37:50.022Z,11.4
2023-02-06T12:39:59.076Z,9.6
2023-02-06T12:42:05.362Z,9.2
2023-02-06T12:44:11.618Z,10.6
2023-02-06T12:46:17.924Z,13.2
2023-02-06T12:48:24.167Z,14.1
2023-02-06T12:50:30.620Z,14.9
2023-02-06T12:52:36.723Z,11.9
2023-02-06T12:54:45.772Z,9.7
2023-02-06T12:56:52.064Z,9.4
2023-02-06T13:03:30.661Z,9.8
2023-02-06T13:07:49.737Z,9.6
2023-02-06T13:14:04.899Z,9.1
2023-02-06T13:16:11.329Z,8.6
2023-02-06T13:24:39.066Z,8.3
2023-02-06T13:26:45.328Z,8.3
2023-02-06T13:35:10.425Z,7.8
2023-02-06T13:37:19.484Z,7.7
2023-02-06T13:47:50.814Z,7.6
2023-02-06T13:52:06.141Z,7.4
2023-02-06T13:56:18.645Z,8.6
2023-02-06T13:57:23.184Z,9
2023-02-06T13:59:29.428Z,8.9
2023-02-06T14:01:35.708Z,8.7
2023-02-06T14:03:41.952Z,9.2
2023-02-06T14:05:50.998Z,10.6
2023-02-06T14:07:57.279Z,10.4
2023-02-06T14:10:03.534Z,11.1
2023-02-06T14:12:09.781Z,10.8
2023-02-06T14:14:16.011Z,9.9
2023-02-06T14:16:22.368Z,9.7
2023-02-06T14:22:43.846Z,8.1
2023-02-06T14:24:50.104Z,7.9
2023-02-06T14:26:56.382Z,7.8
2023-02-06T14:29:02.634Z,7.8
2023-02-06T14:31:09.446Z,7.8
2023-02-06T14:33:15.151Z,7.7
2023-02-06T14:35:24.191Z,7.9
2023-02-06T14:37:30.462Z,7.9
2023-02-06T14:39:36.739Z,8.1
2023-02-06T14:41:42.964Z,8.4
2023-02-06T14:43:49.237Z,8.2
2023-02-06T14:46:06.019Z,8.4
2023-02-06T14:48:01.752Z,8.5
2023-02-06T14:50:10.837Z,9.4
2023-02-06T14:54:23.328Z,10.1
2023-02-06T14:59:40.363Z,9.6
2023-02-06T15:03:55.739Z,9.9
2023-02-06T15:06:01.953Z,10.5
2023-02-06T15:08:08.200Z,10.9
2023-02-06T15:10:14.456Z,10.9
2023-02-06T15:12:20.687Z,10.3
2023-02-06T15:14:26.982Z,9.3
2023-02-06T15:18:42.285Z,7.9
2023-02-06T15:22:58.130Z,7.7
2023-02-06T15:25:01.065Z,7.9
2023-02-06T15:27:07.311Z,7.7
2023-02-06T15:29:13.583Z,7.5
2023-02-06T15:31:19.961Z,7.6
2023-02-06T15:33:28.898Z,8.5
2023-02-06T15:37:41.412Z,8.1
2023-02-06T15:39:47.638Z,7.9
2023-02-06T15:41:53.884Z,7.9
2023-02-06T15:44:00.124Z,7.7
2023-02-06T15:46:06.452Z,7.7
2023-02-06T15:50:21.652Z,7.3
2023-02-06T15:52:27.885Z,7.1
2023-02-06T15:55:38.675Z,6.9
2023-02-06T15:59:51.137Z,6.8
2023-02-06T16:02:00.181Z,6.6
2023-02-06T16:06:12.622Z,6.5
2023-02-06T16:08:18.836Z,6.5
2023-02-06T16:10:25.060Z,6.4
2023-02-06T16:12:31.288Z,6.4
2023-02-06T16:14:37.503Z,6.3
2023-02-06T16:18:52.795Z,6.1
2023-02-06T16:27:17.605Z,5.8
2023-02-06T16:31:32.983Z,5.5
2023-02-06T16:33:39.010Z,5.5
2023-02-06T16:35:45.236Z,5.3
2023-02-06T16:37:51.441Z,5.1
2023-02-06T16:39:57.591Z,5.1
2023-02-06T16:46:19.075Z,4.7
2023-02-06T16:48:25.198Z,4.7
2023-02-06T16:50:31.363Z,4.6
2023-02-06T16:52:57.078Z,4.5
2023-02-06T16:55:03.278Z,4.4
2023-02-06T16:57:09.441Z,4.3
2023-02-06T16:59:18.631Z,4.2
2023-02-06T17:01:24.898Z,4.1
2023-02-06T17:03:31.085Z,4
2023-02-06T17:05:37.272Z,3.9
2023-02-06T17:07:43.525Z,3.8
2023-02-06T17:09:49.718Z,3.8
2023-02-06T17:11:55.852Z,3.9
2023-02-06T17:14:04.834Z,3.8
2023-02-06T17:20:23.550Z,3.8
2023-02-06T17:22:29.778Z,3.8
2023-02-06T17:24:36.051Z,3.7
2023-02-06T17:26:42.313Z,3.6
2023-02-06T17:28:51.468Z,3.5
2023-02-06T17:30:59.930Z,3.4
2023-02-06T17:33:04.038Z,3.4
2023-02-06T17:35:10.271Z,3.5
2023-02-06T17:39:22.783Z,3.4
2023-02-06T17:41:29.045Z,3.4
2023-02-06T17:43:38.155Z,3.3
2023-02-06T17:47:50.696Z,3.4
2023-02-06T17:48:55.251Z,3.4
2023-02-06T17:51:01.535Z,3.3
2023-02-06T17:55:13.964Z,3.2
2023-02-06T17:59:29.339Z,3.2
2023-02-06T18:03:41.801Z,3.3
2023-02-06T18:05:47.998Z,3.2
2023-02-06T18:10:00.486Z,3.1
2023-02-06T18:12:09.632Z,3
2023-02-06T18:14:15.888Z,2.9
2023-02-06T18:16:22.146Z,2.8
2023-02-06T18:18:28.360Z,2.8
2023-02-06T18:20:34.669Z,2.8
2023-02-06T18:22:40.773Z,2.8
2023-02-06T18:24:47.019Z,2.9
2023-02-06T18:33:14.824Z,2.9
2023-02-06T18:35:21.020Z,2.8
2023-02-06T18:37:28.818Z,2.8
2023-02-06T18:39:35.009Z,2.6
2023-02-06T18:41:44.129Z,2.6
2023-02-06T18:47:01.113Z,2.6
2023-02-06T18:51:13.534Z,2.5
2023-02-06T18:55:28.904Z,2.5
2023-02-06T18:57:35.075Z,2.5
2023-02-06T18:59:41.292Z,2.5
2023-02-06T19:03:53.729Z,2.4
2023-02-06T19:08:06.141Z,2.3
2023-02-06T19:10:15.234Z,2
2023-02-06T19:12:21.511Z,2
2023-02-06T19:14:27.647Z,1.9
2023-02-06T19:20:46.253Z,1.9
2023-02-06T19:25:01.595Z,1.8
2023-02-06T19:27:07.711Z,1.9
2023-02-06T19:29:13.911Z,1.8
2023-02-06T19:31:20.149Z,1.7
2023-02-06T19:33:26.269Z,1.6
2023-02-06T19:39:47.708Z,1.6
2023-02-06T19:41:53.856Z,1.6
2023-02-06T19:45:04.565Z,1.8
2023-02-06T19:47:10.777Z,1.8
2023-02-06T19:49:16.925Z,1.8
2023-02-06T19:51:23.106Z,1.7
2023-02-06T19:57:44.532Z,1.4
2023-02-06T19:59:50.744Z,1.3
2023-02-06T20:01:56.901Z,1.3
2023-02-06T20:04:03.073Z,1.2
2023-02-06T20:12:30.687Z,0.8
2023-02-06T20:20:55.242Z,1
2023-02-06T20:23:04.285Z,0.9
2023-02-06T20:25:10.440Z,0.9
2023-02-06T20:33:35.060Z,0.8
2023-02-06T20:35:41.177Z,0.8
2023-02-06T20:37:50.252Z,0.8
2023-02-06T20:39:56.380Z,0.8
2023-02-06T20:42:02.533Z,0.8
2023-02-06T20:44:28.741Z,0.9
2023-02-06T20:48:40.745Z,0.8
2023-02-06T20:50:49.773Z,0.7
2023-02-06T20:55:02.086Z,0.8
2023-02-06T20:57:08.228Z,0.7
2023-02-06T20:59:14.374Z,0.7
2023-02-06T21:01:20.567Z,0.7
2023-02-06T21:03:26.810Z,0.6
2023-02-06T21:05:35.710Z,0.5
2023-02-06T21:07:41.823Z,0.4
2023-02-06T21:11:54.114Z,0.4
2023-02-06T21:14:00.617Z,0.3
2023-02-06T21:16:06.430Z,0.4
2023-02-06T21:18:12.523Z,0.5
2023-02-06T21:20:21.572Z,0.4
2023-02-06T21:22:27.728Z,0.4
2023-02-06T21:24:33.820Z,0.4
2023-02-06T21:26:39.961Z,0.3
2023-02-06T21:28:46.100Z,0.3
2023-02-06T21:30:52.294Z,0.3
2023-02-06T21:32:58.356Z,0.2
2023-02-06T21:35:07.359Z,0.2
2023-02-06T21:37:13.492Z,0.2
2023-02-06T21:39:19.630Z,0.1
2023-02-06T21:40:24.148Z,0.1
2023-02-06T21:42:30.262Z,0.2
2023-02-06T21:44:36.367Z,0.2
2023-02-06T21:46:42.499Z,0.2
2023-02-06T21:50:57.651Z,0.2
2023-02-06T21:53:03.743Z,0.2
2023-02-06T21:55:09.884Z,0.2
2023-02-06T21:57:15.997Z,0.2
2023-02-06T21:59:22.081Z,0.1
2023-02-06T22:01:28.328Z,0
2023-02-06T22:03:37.236Z,0
2023-02-06T22:05:43.358Z,0
2023-02-06T22:07:49.471Z,-0.1
2023-02-06T22:09:55.564Z,0
2023-02-06T22:12:01.927Z,-0.1
2023-02-06T22:14:07.817Z,0.1
2023-02-06T22:16:13.922Z,0
2023-02-06T22:18:22.907Z,-0.2
2023-02-06T22:20:29.018Z,-0.2
2023-02-06T22:22:35.127Z,-0.1
2023-02-06T22:28:53.451Z,-0.2
2023-02-06T22:33:08.548Z,-0.2
2023-02-06T22:35:14.673Z,-0.2
2023-02-06T22:37:20.761Z,-0.3
2023-02-06T22:38:25.264Z,-0.2
2023-02-06T22:40:31.494Z,-0.2
2023-02-06T22:42:37.517Z,-0.2
2023-02-06T22:44:43.593Z,-0.3
2023-02-06T22:46:52.607Z,-0.4
2023-02-06T22:51:04.805Z,-0.4
2023-02-06T22:59:29.221Z,-0.4
2023-02-06T23:03:44.359Z,-0.6
2023-02-06T23:07:56.539Z,-0.7
2023-02-06T23:10:02.657Z,-0.6
2023-02-06T23:14:14.855Z,-0.7
2023-02-06T23:16:23.877Z,-0.8
2023-02-06T23:18:30.110Z,-0.7
2023-02-06T23:20:36.057Z,-0.7
2023-02-06T23:22:42.147Z,-0.8
2023-02-06T23:24:48.242Z,-0.9
2023-02-06T23:26:54.396Z,-1
2023-02-06T23:29:00.455Z,-0.9
2023-02-06T23:31:09.476Z,-0.9
2023-02-06T23:33:15.573Z,-1
2023-02-06T23:35:21.662Z,-0.9
2023-02-06T23:36:26.147Z,-1
2023-02-06T23:42:44.468Z,-0.8
2023-02-06T23:44:53.487Z,-1
2023-02-06T23:46:59.557Z,-1.1
2023-02-06T23:49:05.781Z,-1.2
2023-02-06T23:55:23.949Z,-1.2
2023-02-06T23:57:30.042Z,-1.2
2023-02-06T23:59:39.066Z,-1.2
